Time;durP1;ratioP1;P1;durP2;ratioP2;P2;SDS_P1;SDS_P2;PMS_P1;PMS_P2;Temp;Humidity;BMP_temperature;BMP_pressure;BME280_temperature;BME280_humidity;BME280_pressure;Samples;Min_cycle;Max_cycle;Signal;HPM_P1;HPM_P2
2021/04/22 00:01:20;;;;;;;20.55;3.67;;;;;;;;;;5148044;27;20079;-71
2021/04/22 00:03:46;;;;;;;17.05;3.80;;;;;;;;;;5138807;27;20035;-71
2021/04/22 00:06:12;;;;;;;29.70;7.95;;;;;;;;;;5155316;27;20042;-71
2021/04/22 00:08:39;;;;;;;18.30;4.00;;;;;;;;;;5150548;27;20035;-71
2021/04/22 00:11:05;;;;;;;28.02;7.93;;;;;;;;;;5154723;27;20031;-71
2021/04/22 00:13:31;;;;;;;18.98;3.53;;;;;;;;;;5132050;27;20031;-72
2021/04/22 00:15:59;;;;;;;20.17;5.03;;;;;;;;;;5137225;27;20030;-71
2021/04/22 00:18:25;;;;;;;25.95;3.38;;;;;;;;;;5153345;27;20444;-71
2021/04/22 00:20:52;;;;;;;22.58;3.78;;;;;;;;;;5154839;27;20034;-71
2021/04/22 00:23:19;;;;;;;20.65;3.80;;;;;;;;;;5131760;27;20095;-71
2021/04/22 00:25:45;;;;;;;18.55;3.22;;;;;;;;;;5139789;27;20497;-71
2021/04/22 00:28:12;;;;;;;16.15;3.85;;;;;;;;;;5135397;27;20091;-71
2021/04/22 00:30:40;;;;;;;19.13;3.28;;;;;;;;;;5156627;27;20046;-71
2021/04/22 00:33:08;;;;;;;13.43;2.63;;;;;;;;;;5145117;27;20351;-71
2021/04/22 00:35:34;;;;;;;13.27;3.08;;;;;;;;;;5148251;27;20042;-71
2021/04/22 00:38:01;;;;;;;18.30;3.22;;;;;;;;;;5133287;27;20122;-71
2021/04/22 00:40:28;;;;;;;18.15;3.53;;;;;;;;;;5133651;27;20069;-71
2021/04/22 00:42:54;;;;;;;15.80;2.38;;;;;;;;;;5155271;27;20030;-71
2021/04/22 00:45:21;;;;;;;15.65;3.28;;;;;;;;;;5127515;27;20038;-72
2021/04/22 00:47:47;;;;;;;25.30;3.10;;;;;;;;;;5146776;27;20036;-71
2021/04/22 00:50:20;;;;;;;14.90;2.50;;;;;;;;;;5151832;27;20058;-71
2021/04/22 00:52:46;;;;;;;20.30;2.58;;;;;;;;;;5155474;27;20058;-71
2021/04/22 00:55:12;;;;;;;16.38;3.45;;;;;;;;;;5128219;27;20043;-71
2021/04/22 00:57:39;;;;;;;15.43;3.17;;;;;;;;;;5141365;27;20035;-71
2021/04/22 01:00:09;;;;;;;16.25;2.97;;;;;;;;;;5148490;27;20030;-71
2021/04/22 01:02:36;;;;;;;18.70;3.45;;;;;;;;;;5119838;27;20031;-71
2021/04/22 01:05:06;;;;;;;14.70;3.28;;;;;;;;;;5149783;27;20035;-71
2021/04/22 01:07:33;;;;;;;18.02;4.80;;;;;;;;;;5155848;27;20027;-71
2021/04/22 01:09:59;;;;;;;16.88;3.15;;;;;;;;;;5153577;27;20035;-71
2021/04/22 01:12:25;;;;;;;12.43;2.40;;;;;;;;;;5137339;27;20035;-72
2021/04/22 01:14:52;;;;;;;13.88;2.28;;;;;;;;;;5130148;27;20530;-71
2021/04/22 01:17:18;;;;;;;11.52;2.58;;;;;;;;;;5152843;27;20049;-71
2021/04/22 01:19:44;;;;;;;14.30;2.72;;;;;;;;;;5154762;27;20134;-71
2021/04/22 01:22:10;;;;;;;13.25;2.60;;;;;;;;;;5153047;27;20049;-72
2021/04/22 01:24:37;;;;;;;12.80;2.00;;;;;;;;;;5153612;27;20039;-70
2021/04/22 01:27:03;;;;;;;12.70;2.30;;;;;;;;;;5150811;27;20035;-71
2021/04/22 01:29:30;;;;;;;13.90;1.90;;;;;;;;;;5133539;27;20070;-71
2021/04/22 01:31:56;;;;;;;12.23;1.85;;;;;;;;;;5150247;27;20033;-71
2021/04/22 01:34:22;;;;;;;21.25;3.17;;;;;;;;;;5148626;27;20051;-71
2021/04/22 01:36:48;;;;;;;16.30;3.63;;;;;;;;;;5151680;27;20039;-71
2021/04/22 01:39:15;;;;;;;11.02;2.58;;;;;;;;;;5154602;27;20031;-72
2021/04/22 01:41:42;;;;;;;17.45;3.03;;;;;;;;;;5154726;27;20034;-72
2021/04/22 01:44:08;;;;;;;18.00;3.25;;;;;;;;;;5152931;27;20031;-71
2021/04/22 01:46:35;;;;;;;14.13;2.33;;;;;;;;;;5147569;27;20038;-72
2021/04/22 01:49:01;;;;;;;16.88;2.83;;;;;;;;;;5148749;27;20115;-72
2021/04/22 01:51:27;;;;;;;13.93;2.70;;;;;;;;;;5132934;27;20533;-72
2021/04/22 01:53:54;;;;;;;14.88;2.90;;;;;;;;;;5154034;27;20365;-72
2021/04/22 01:56:20;;;;;;;16.08;3.22;;;;;;;;;;5153811;27;20131;-72
2021/04/22 01:58:47;;;;;;;17.05;2.72;;;;;;;;;;5148724;27;20042;-72
2021/04/22 02:01:13;;;;;;;9.57;2.15;;;;;;;;;;5145088;27;20034;-71
2021/04/22 02:03:39;;;;;;;14.25;2.83;;;;;;;;;;5139716;27;20039;-71
2021/04/22 02:06:07;;;;;;;18.70;2.85;;;;;;;;;;5127062;27;20439;-71
2021/04/22 02:08:34;;;;;;;12.38;2.90;;;;;;;;;;5150268;27;20079;-71
2021/04/22 02:11:02;;;;;;;7.70;2.70;;;;;;;;;;5154362;27;20054;-71
2021/04/22 02:13:29;;;;;;;15.73;2.85;;;;;;;;;;5155012;27;20046;-72
2021/04/22 02:15:55;;;;;;;13.50;2.50;;;;;;;;;;5135929;27;20033;-71
2021/04/22 02:18:22;;;;;;;15.13;2.75;;;;;;;;;;5150227;27;20053;-71
2021/04/22 02:20:51;;;;;;;19.52;2.80;;;;;;;;;;5147853;27;20123;-72
2021/04/22 02:23:20;;;;;;;10.38;2.60;;;;;;;;;;5152415;27;20038;-72
2021/04/22 02:25:47;;;;;;;23.00;3.65;;;;;;;;;;5118780;27;20092;-71
2021/04/22 02:28:14;;;;;;;24.35;3.00;;;;;;;;;;5150463;27;20038;-71
2021/04/22 02:30:44;;;;;;;16.23;2.90;;;;;;;;;;5153877;27;20042;-71
2021/04/22 02:33:12;;;;;;;13.38;2.80;;;;;;;;;;5131678;27;20549;-71
2021/04/22 02:35:39;;;;;;;21.38;3.58;;;;;;;;;;5142022;27;20389;-71
2021/04/22 02:38:07;;;;;;;14.45;2.80;;;;;;;;;;5136092;27;20043;-71
2021/04/22 02:40:34;;;;;;;16.98;3.40;;;;;;;;;;5146050;27;20045;-70
2021/04/22 02:43:01;;;;;;;15.23;2.80;;;;;;;;;;5140780;27;20120;-71
2021/04/22 02:45:44;;;;;;;19.73;3.45;;;;;;;;;;5142354;27;20043;-70
2021/04/22 02:48:10;;;;;;;16.27;3.90;;;;;;;;;;5149315;27;20062;-70
2021/04/22 02:50:37;;;;;;;15.27;3.05;;;;;;;;;;5137575;27;20073;-70
2021/04/22 02:53:05;;;;;;;12.05;2.88;;;;;;;;;;5125773;27;20135;-71
2021/04/22 02:55:31;;;;;;;17.75;3.28;;;;;;;;;;5128576;27;20121;-71
2021/04/22 02:57:58;;;;;;;16.75;3.63;;;;;;;;;;5151310;27;20031;-71
2021/04/22 03:00:24;;;;;;;13.88;3.42;;;;;;;;;;5151521;27;20046;-71
2021/04/22 03:02:50;;;;;;;14.05;3.42;;;;;;;;;;5145620;27;20112;-70
2021/04/22 03:05:18;;;;;;;22.17;3.58;;;;;;;;;;5128725;27;20035;-71
2021/04/22 03:07:45;;;;;;;15.15;3.25;;;;;;;;;;5150751;27;20099;-69
2021/04/22 03:10:14;;;;;;;20.95;3.50;;;;;;;;;;5133515;27;20114;-70
2021/04/22 03:12:40;;;;;;;19.00;3.40;;;;;;;;;;5150580;27;20180;-70
2021/04/22 03:15:08;;;;;;;16.25;3.38;;;;;;;;;;5138061;27;20035;-70
2021/04/22 03:17:36;;;;;;;14.85;3.30;;;;;;;;;;5113184;27;20110;-71
2021/04/22 03:20:04;;;;;;;15.05;3.10;;;;;;;;;;5152280;27;20057;-70
2021/04/22 03:22:32;;;;;;;19.58;3.50;;;;;;;;;;5137360;27;20038;-70
2021/04/22 03:25:05;;;;;;;15.45;3.35;;;;;;;;;;5152360;27;20045;-70
2021/04/22 03:27:31;;;;;;;17.98;2.75;;;;;;;;;;5146656;27;20108;-70
2021/04/22 03:29:58;;;;;;;15.15;3.13;;;;;;;;;;5137935;27;20457;-69
2021/04/22 03:32:24;;;;;;;14.95;2.70;;;;;;;;;;5144711;27;20392;-70
2021/04/22 03:34:50;;;;;;;15.13;2.78;;;;;;;;;;5149859;27;20376;-70
2021/04/22 03:37:17;;;;;;;26.23;3.40;;;;;;;;;;5147920;27;20063;-70
2021/04/22 03:39:43;;;;;;;17.48;3.13;;;;;;;;;;5150627;27;20345;-70
2021/04/22 03:42:09;;;;;;;9.05;2.47;;;;;;;;;;5142828;27;20117;-70
2021/04/22 03:44:36;;;;;;;17.58;2.95;;;;;;;;;;5146248;27;20462;-71
2021/04/22 03:47:02;;;;;;;18.42;2.80;;;;;;;;;;5133862;27;20046;-70
2021/04/22 03:49:29;;;;;;;22.45;4.65;;;;;;;;;;5149941;27;20040;-70
2021/04/22 03:51:55;;;;;;;20.13;3.45;;;;;;;;;;5152662;27;20035;-70
2021/04/22 03:54:21;;;;;;;17.45;3.55;;;;;;;;;;5141598;27;20033;-70
2021/04/22 03:56:47;;;;;;;15.55;2.90;;;;;;;;;;5127175;27;20450;-70
2021/04/22 03:59:13;;;;;;;21.42;3.97;;;;;;;;;;5144011;27;20030;-70
2021/04/22 04:01:39;;;;;;;23.48;4.63;;;;;;;;;;5138343;27;20031;-70
2021/04/22 04:04:06;;;;;;;14.32;2.95;;;;;;;;;;5143355;27;20409;-70
2021/04/22 04:06:34;;;;;;;20.85;3.17;;;;;;;;;;5139245;27;20221;-70
2021/04/22 04:09:00;;;;;;;17.35;3.30;;;;;;;;;;5123696;27;20065;-70
2021/04/22 04:11:26;;;;;;;18.63;3.03;;;;;;;;;;5148663;27;20066;-70
2021/04/22 04:13:52;;;;;;;14.50;3.30;;;;;;;;;;5151032;27;20130;-70
2021/04/22 04:16:18;;;;;;;13.00;2.83;;;;;;;;;;5137897;27;20046;-70
2021/04/22 04:18:44;;;;;;;17.92;2.55;;;;;;;;;;5146038;27;20120;-71
2021/04/22 04:21:11;;;;;;;14.82;3.47;;;;;;;;;;5145779;27;20049;-71
2021/04/22 04:23:37;;;;;;;18.35;3.45;;;;;;;;;;5147210;27;20442;-70
2021/04/22 04:26:04;;;;;;;19.50;4.32;;;;;;;;;;5144463;27;20129;-70
2021/04/22 04:28:30;;;;;;;17.35;3.25;;;;;;;;;;5149584;27;20038;-70
2021/04/22 04:30:56;;;;;;;16.75;3.13;;;;;;;;;;5145273;27;20031;-70
2021/04/22 04:33:22;;;;;;;15.70;3.22;;;;;;;;;;5131801;27;20038;-70
2021/04/22 04:35:48;;;;;;;21.75;4.00;;;;;;;;;;5132355;27;20384;-70
2021/04/22 04:38:15;;;;;;;18.70;2.70;;;;;;;;;;5148562;27;20049;-70
2021/04/22 04:40:41;;;;;;;27.77;4.28;;;;;;;;;;5130834;27;20030;-71
2021/04/22 04:43:07;;;;;;;18.35;2.88;;;;;;;;;;5152723;27;20038;-71
2021/04/22 04:45:33;;;;;;;15.93;4.38;;;;;;;;;;5149520;27;20057;-70
2021/04/22 04:47:59;;;;;;;19.25;3.60;;;;;;;;;;5151644;27;20031;-72
2021/04/22 04:50:26;;;;;;;13.75;2.72;;;;;;;;;;5118235;27;20039;-71
2021/04/22 04:52:52;;;;;;;22.92;3.25;;;;;;;;;;5156927;27;20039;-71
2021/04/22 04:55:18;;;;;;;16.10;3.45;;;;;;;;;;5154856;27;20038;-72
2021/04/22 04:57:44;;;;;;;17.52;2.85;;;;;;;;;;5136481;27;20130;-72
2021/04/22 05:00:12;;;;;;;14.43;2.97;;;;;;;;;;5137592;27;20039;-73
2021/04/22 05:02:38;;;;;;;20.95;2.97;;;;;;;;;;5135589;27;20343;-72
2021/04/22 05:05:05;;;;;;;14.82;2.67;;;;;;;;;;5132432;27;20489;-73
2021/04/22 05:07:32;;;;;;;15.32;2.55;;;;;;;;;;5156018;27;20039;-72
2021/04/22 05:09:58;;;;;;;15.25;2.38;;;;;;;;;;5147768;27;20050;-73
2021/04/22 05:12:24;;;;;;;12.77;2.70;;;;;;;;;;5128367;27;20604;-73
2021/04/22 05:14:51;;;;;;;17.95;2.90;;;;;;;;;;5152757;27;20064;-72
2021/04/22 05:17:17;;;;;;;22.63;3.00;;;;;;;;;;5156368;27;20062;-72
2021/04/22 05:19:44;;;;;;;17.73;2.88;;;;;;;;;;5155152;27;20046;-72
2021/04/22 05:22:10;;;;;;;17.67;3.45;;;;;;;;;;5137901;27;20460;-73
2021/04/22 05:24:36;;;;;;;15.23;2.88;;;;;;;;;;5155068;27;20130;-72
2021/04/22 05:27:03;;;;;;;14.85;3.03;;;;;;;;;;5156156;27;20130;-72
2021/04/22 05:29:29;;;;;;;15.85;3.28;;;;;;;;;;5154072;27;20476;-71
2021/04/22 05:31:55;;;;;;;17.90;3.40;;;;;;;;;;5156407;27;20056;-72
2021/04/22 05:34:21;;;;;;;12.45;3.40;;;;;;;;;;5155589;27;20035;-72
2021/04/22 05:36:48;;;;;;;21.17;3.58;;;;;;;;;;5127236;27;20438;-72
2021/04/22 05:39:14;;;;;;;14.85;3.30;;;;;;;;;;5155500;27;20091;-72
2021/04/22 05:41:40;;;;;;;19.50;3.40;;;;;;;;;;5118198;27;20063;-72
2021/04/22 05:44:08;;;;;;;17.35;3.53;;;;;;;;;;5142728;27;20488;-72
2021/04/22 05:46:34;;;;;;;15.27;3.50;;;;;;;;;;5153626;27;20043;-68
2021/04/22 05:49:00;;;;;;;12.27;3.05;;;;;;;;;;5134874;27;20461;-71
2021/04/22 05:51:26;;;;;;;20.08;3.38;;;;;;;;;;5151564;27;20126;-69
2021/04/22 05:53:52;;;;;;;11.27;3.30;;;;;;;;;;5154152;27;20396;-70
2021/04/22 05:56:18;;;;;;;14.23;3.47;;;;;;;;;;5133135;27;20034;-69
2021/04/22 05:58:45;;;;;;;20.20;3.97;;;;;;;;;;5151760;27;20043;-70
2021/04/22 06:01:11;;;;;;;10.77;3.53;;;;;;;;;;5134775;27;20063;-72
2021/04/22 06:03:37;;;;;;;13.00;3.60;;;;;;;;;;5135039;27;20081;-70
2021/04/22 06:06:03;;;;;;;14.93;3.35;;;;;;;;;;5149859;27;20027;-72
2021/04/22 06:08:31;;;;;;;17.30;3.80;;;;;;;;;;5145317;27;20053;-71
2021/04/22 06:10:57;;;;;;;13.20;3.83;;;;;;;;;;5150358;27;20049;-72
2021/04/22 06:13:24;;;;;;;16.35;4.97;;;;;;;;;;5153032;27;20039;-72
2021/04/22 06:15:50;;;;;;;13.70;3.20;;;;;;;;;;5153203;27;20469;-72
2021/04/22 06:18:16;;;;;;;17.38;4.78;;;;;;;;;;5153224;27;20027;-73
2021/04/22 06:20:43;;;;;;;17.95;4.13;;;;;;;;;;5134307;27;20457;-72
2021/04/22 06:23:09;;;;;;;22.05;4.28;;;;;;;;;;5154543;27;20042;-72
2021/04/22 06:25:35;;;;;;;19.00;4.47;;;;;;;;;;5135059;27;20050;-71
2021/04/22 06:28:02;;;;;;;14.80;3.17;;;;;;;;;;5151823;27;20042;-71
2021/04/22 06:30:29;;;;;;;12.35;2.88;;;;;;;;;;5152247;27;20125;-71
2021/04/22 06:32:55;;;;;;;18.63;3.83;;;;;;;;;;5152281;27;20043;-71
2021/04/22 06:35:22;;;;;;;14.63;2.92;;;;;;;;;;5132094;27;20102;-71
2021/04/22 06:37:49;;;;;;;17.65;3.50;;;;;;;;;;5152620;27;20038;-71
2021/04/22 06:40:17;;;;;;;18.95;4.50;;;;;;;;;;5135210;27;20358;-71
2021/04/22 06:42:44;;;;;;;15.98;3.17;;;;;;;;;;5151393;27;20095;-71
2021/04/22 06:45:11;;;;;;;16.55;3.05;;;;;;;;;;5133502;27;20039;-71
2021/04/22 06:47:37;;;;;;;14.93;2.85;;;;;;;;;;5133633;27;20046;-71
2021/04/22 06:50:07;;;;;;;19.25;4.75;;;;;;;;;;5150677;27;20043;-70
2021/04/22 06:52:34;;;;;;;13.30;3.22;;;;;;;;;;5151602;27;20069;-70
2021/04/22 06:55:00;;;;;;;13.75;2.83;;;;;;;;;;5150679;27;20156;-70
2021/04/22 06:57:27;;;;;;;13.23;3.35;;;;;;;;;;5146744;27;20034;-71
2021/04/22 06:59:53;;;;;;;12.82;3.03;;;;;;;;;;5152960;27;20038;-71
2021/04/22 07:02:19;;;;;;;19.00;3.47;;;;;;;;;;5153213;27;20061;-71
2021/04/22 07:04:45;;;;;;;21.15;3.20;;;;;;;;;;5134436;27;20047;-71
2021/04/22 07:07:11;;;;;;;14.15;2.70;;;;;;;;;;5112384;27;20127;-71
2021/04/22 07:09:57;;;;;;;12.82;2.85;;;;;;;;;;5130119;27;20043;-71
2021/04/22 07:12:23;;;;;;;17.75;3.08;;;;;;;;;;5151449;27;20087;-71
2021/04/22 07:14:50;;;;;;;13.82;2.60;;;;;;;;;;5151322;27;20113;-71
2021/04/22 07:17:16;;;;;;;12.93;2.60;;;;;;;;;;5151515;27;20043;-71
2021/04/22 07:20:04;;;;;;;15.43;2.40;;;;;;;;;;5123020;27;20045;-72
2021/04/22 07:22:51;;;;;;;11.50;2.70;;;;;;;;;;5137661;27;20054;-71
2021/04/22 07:25:18;;;;;;;10.43;2.40;;;;;;;;;;5130730;27;20381;-72
2021/04/22 07:28:06;;;;;;;12.10;2.95;;;;;;;;;;5125287;27;20043;-72
2021/04/22 07:30:33;;;;;;;9.88;2.60;;;;;;;;;;5131142;27;20027;-71
2021/04/22 07:32:59;;;;;;;10.95;2.13;;;;;;;;;;5130639;27;20050;-72
2021/04/22 07:35:25;;;;;;;12.45;2.67;;;;;;;;;;5131331;27;20562;-70
2021/04/22 07:37:51;;;;;;;14.32;2.83;;;;;;;;;;5131712;27;20121;-71
2021/04/22 07:40:19;;;;;;;16.85;3.40;;;;;;;;;;5132334;27;20458;-71
2021/04/22 07:42:46;;;;;;;12.25;2.80;;;;;;;;;;5096593;27;20070;-71
2021/04/22 07:45:13;;;;;;;10.20;2.58;;;;;;;;;;5131965;27;20047;-72
2021/04/22 07:47:39;;;;;;;13.77;3.40;;;;;;;;;;5130696;27;20409;-71
2021/04/22 07:50:07;;;;;;;15.27;3.40;;;;;;;;;;5129038;27;20475;-71
2021/04/22 07:52:34;;;;;;;17.08;4.10;;;;;;;;;;5124109;27;20039;-71
2021/04/22 07:55:00;;;;;;;10.73;2.55;;;;;;;;;;5129872;27;20039;-71
2021/04/22 07:57:26;;;;;;;13.20;2.45;;;;;;;;;;5132805;27;20040;-71
2021/04/22 07:59:53;;;;;;;14.32;3.13;;;;;;;;;;5128968;27;20367;-71
2021/04/22 08:02:20;;;;;;;12.88;2.67;;;;;;;;;;5132320;28;20035;-71
2021/04/22 08:04:47;;;;;;;7.95;2.22;;;;;;;;;;5130350;28;20032;-71
2021/04/22 08:07:14;;;;;;;8.23;2.08;;;;;;;;;;5130262;28;20043;-71
2021/04/22 08:09:40;;;;;;;9.30;3.03;;;;;;;;;;5128251;28;20454;-71
2021/04/22 08:12:06;;;;;;;;;;;;;;;;;;5132185;27;20032;-71
2021/04/22 08:14:33;;;;;;;10.85;2.22;;;;;;;;;;5130365;28;20346;-71
2021/04/22 08:16:59;;;;;;;11.57;2.58;;;;;;;;;;5129691;28;20501;-72
2021/04/22 08:19:25;;;;;;;10.20;2.70;;;;;;;;;;5130620;28;20463;-71
2021/04/22 08:21:51;;;;;;;10.02;2.55;;;;;;;;;;5129738;28;20504;-72
2021/04/22 08:24:18;;;;;;;9.13;2.22;;;;;;;;;;5124299;27;20406;-69
2021/04/22 08:26:45;;;;;;;11.95;2.58;;;;;;;;;;5149355;27;20393;-69
2021/04/22 08:29:11;;;;;;;10.50;2.28;;;;;;;;;;5154571;27;20465;-69
2021/04/22 08:31:38;;;;;;;8.95;2.30;;;;;;;;;;5152051;27;20030;-70
2021/04/22 08:34:07;;;;;;;9.93;2.50;;;;;;;;;;5150376;27;20130;-70
2021/04/22 08:36:34;;;;;;;12.05;2.22;;;;;;;;;;5156709;27;20415;-69
2021/04/22 08:39:00;;;;;;;11.13;2.50;;;;;;;;;;5155379;27;20442;-69
2021/04/22 08:41:28;;;;;;;13.93;2.30;;;;;;;;;;5156058;27;20023;-69
2021/04/22 08:43:54;;;;;;;11.13;2.90;;;;;;;;;;5155928;27;20099;-70
2021/04/22 08:46:23;;;;;;;15.55;2.78;;;;;;;;;;5154996;27;20034;-74
2021/04/22 08:48:56;;;;;;;7.88;2.33;;;;;;;;;;5143667;27;20042;-75
2021/04/22 08:51:23;;;;;;;10.77;2.65;;;;;;;;;;5146882;27;20759;-74
2021/04/22 08:53:49;;;;;;;10.13;3.08;;;;;;;;;;5149605;27;20480;-74
2021/04/22 08:56:18;;;;;;;12.25;2.63;;;;;;;;;;5151490;27;20416;-75
2021/04/22 08:58:44;;;;;;;8.40;2.33;;;;;;;;;;5152856;27;20792;-75
2021/04/22 09:01:12;;;;;;;8.73;2.63;;;;;;;;;;5117353;27;20424;-76
2021/04/22 09:03:42;;;;;;;11.60;3.10;;;;;;;;;;5155201;27;20423;-75
2021/04/22 09:06:09;;;;;;;11.13;2.90;;;;;;;;;;5153828;27;20448;-74
2021/04/22 09:08:40;;;;;;;13.63;3.00;;;;;;;;;;5154490;27;20490;-73
2021/04/22 09:11:07;;;;;;;11.93;3.20;;;;;;;;;;5153952;27;20451;-72
2021/04/22 09:13:34;;;;;;;13.27;3.42;;;;;;;;;;5154620;27;20438;-73
2021/04/22 09:16:03;;;;;;;13.77;3.53;;;;;;;;;;5153386;27;20811;-74
2021/04/22 09:18:36;;;;;;;12.70;3.60;;;;;;;;;;5114435;27;20458;-75
2021/04/22 09:21:02;;;;;;;11.13;3.25;;;;;;;;;;5140360;27;20404;-74
2021/04/22 09:23:30;;;;;;;12.63;2.75;;;;;;;;;;5149693;27;20879;-74
2021/04/22 09:25:58;;;;;;;10.73;2.60;;;;;;;;;;5132237;27;20455;-74
2021/04/22 09:28:37;;;;;;;10.32;2.53;;;;;;;;;;5145476;27;20503;-74
2021/04/22 09:31:04;;;;;;;10.70;2.72;;;;;;;;;;5152649;27;20456;-74
2021/04/22 09:33:32;;;;;;;8.70;2.47;;;;;;;;;;5136388;27;20401;-75
2021/04/22 09:36:06;;;;;;;14.63;2.80;;;;;;;;;;5132942;27;20440;-75
2021/04/22 09:38:32;;;;;;;10.27;2.33;;;;;;;;;;5146686;27;20452;-76
2021/04/22 09:41:14;;;;;;;15.87;2.90;;;;;;;;;;5128087;27;20504;-73
2021/04/22 09:43:42;;;;;;;12.70;2.70;;;;;;;;;;5145992;27;20500;-74
2021/04/22 09:46:21;;;;;;;11.27;2.78;;;;;;;;;;5149884;27;20492;-72
2021/04/22 09:48:48;;;;;;;13.97;2.70;;;;;;;;;;5122146;27;20488;-72
2021/04/22 09:51:25;;;;;;;11.68;2.90;;;;;;;;;;5141182;27;20780;-71
2021/04/22 09:54:01;;;;;;;10.88;2.95;;;;;;;;;;5123817;27;20950;-74
2021/04/22 09:56:38;;;;;;;12.00;3.25;;;;;;;;;;5143702;27;20409;-73
2021/04/22 09:59:06;;;;;;;14.95;2.88;;;;;;;;;;5142305;27;20708;-73
2021/04/22 10:01:32;;;;;;;10.90;2.90;;;;;;;;;;5146524;27;20453;-73
2021/04/22 10:03:58;;;;;;;11.52;2.85;;;;;;;;;;5124173;27;20434;-69
2021/04/22 10:06:24;;;;;;;12.98;3.10;;;;;;;;;;5130837;27;20409;-71
2021/04/22 10:08:50;;;;;;;10.73;2.70;;;;;;;;;;5132783;27;20430;-71
2021/04/22 10:11:17;;;;;;;12.17;3.03;;;;;;;;;;5143279;27;20456;-70
2021/04/22 10:13:44;;;;;;;13.95;3.00;;;;;;;;;;5140398;27;20476;-71
2021/04/22 10:16:10;;;;;;;12.02;2.90;;;;;;;;;;5126436;27;20871;-70
2021/04/22 10:18:38;;;;;;;12.10;3.27;;;;;;;;;;5143386;27;20438;-70
2021/04/22 10:21:04;;;;;;;11.40;2.72;;;;;;;;;;5120533;27;20458;-71
2021/04/22 10:23:30;;;;;;;12.18;2.85;;;;;;;;;;5143192;27;20409;-70
2021/04/22 10:25:57;;;;;;;11.75;2.70;;;;;;;;;;5146084;27;20523;-70
2021/04/22 10:28:23;;;;;;;12.68;2.88;;;;;;;;;;5150538;27;20438;-69
2021/04/22 10:30:51;;;;;;;10.73;2.60;;;;;;;;;;5133419;27;20767;-71
2021/04/22 10:33:18;;;;;;;11.55;2.97;;;;;;;;;;5131223;27;20871;-71
2021/04/22 10:35:46;;;;;;;10.25;2.70;;;;;;;;;;5150190;27;20400;-72
2021/04/22 10:38:12;;;;;;;13.93;3.15;;;;;;;;;;5132913;27;20409;-72
2021/04/22 10:40:40;;;;;;;10.20;2.78;;;;;;;;;;5153226;27;20433;-71
2021/04/22 10:43:07;;;;;;;12.88;3.10;;;;;;;;;;5151370;27;20453;-72
2021/04/22 10:45:35;;;;;;;13.73;2.83;;;;;;;;;;5150213;27;20487;-72
2021/04/22 10:48:01;;;;;;;12.82;3.00;;;;;;;;;;5132086;27;20500;-71
2021/04/22 10:50:34;;;;;;;10.32;2.38;;;;;;;;;;5130621;27;20520;-76
2021/04/22 10:53:01;;;;;;;8.88;2.30;;;;;;;;;;5150148;27;20509;-73
2021/04/22 10:55:31;;;;;;;9.90;2.40;;;;;;;;;;5146044;27;20414;-72
2021/04/22 10:57:58;;;;;;;10.88;2.58;;;;;;;;;;5150298;27;20407;-72
2021/04/22 11:00:27;;;;;;;10.82;2.83;;;;;;;;;;5150703;27;20456;-73
2021/04/22 11:02:54;;;;;;;13.30;3.00;;;;;;;;;;5150970;27;20435;-73
2021/04/22 11:05:26;;;;;;;12.30;2.80;;;;;;;;;;5151015;27;20421;-74
2021/04/22 11:07:57;;;;;;;14.00;2.92;;;;;;;;;;5146576;27;20473;-73
2021/04/22 11:10:31;;;;;;;14.70;3.10;;;;;;;;;;5148024;27;20512;-73
2021/04/22 11:13:07;;;;;;;14.82;3.10;;;;;;;;;;5148913;27;20417;-73
2021/04/22 11:15:34;;;;;;;12.30;3.00;;;;;;;;;;5131794;27;20820;-73
2021/04/22 11:18:08;;;;;;;13.27;2.90;;;;;;;;;;5130904;27;20944;-72
2021/04/22 11:20:39;;;;;;;12.88;2.78;;;;;;;;;;5131602;27;20986;-73
2021/04/22 11:23:31;;;;;;;10.27;2.70;;;;;;;;;;5147428;27;21139;-75
2021/04/22 11:25:57;;;;;;;10.40;2.60;;;;;;;;;;5143837;27;20496;-73
2021/04/22 11:28:34;;;;;;;11.63;2.88;;;;;;;;;;5147619;27;20475;-73
2021/04/22 11:31:11;;;;;;;7.18;2.30;;;;;;;;;;5130954;27;20437;-74
2021/04/22 11:33:37;;;;;;;9.32;2.30;;;;;;;;;;5151655;27;20534;-73
2021/04/22 11:36:16;;;;;;;10.20;2.60;;;;;;;;;;5147823;27;20894;-74
2021/04/22 11:39:02;;;;;;;11.30;2.60;;;;;;;;;;5149904;27;20405;-74
2021/04/22 11:41:30;;;;;;;8.90;2.50;;;;;;;;;;5133221;27;20456;-75
2021/04/22 11:44:22;;;;;;;8.77;2.55;;;;;;;;;;5147896;27;20420;-74
2021/04/22 11:46:48;;;;;;;10.15;2.38;;;;;;;;;;5129644;27;20413;-74
2021/04/22 11:49:25;;;;;;;11.80;2.50;;;;;;;;;;5149370;27;20417;-75
2021/04/22 11:51:52;;;;;;;9.82;2.42;;;;;;;;;;5147063;27;20420;-73
2021/04/22 11:54:19;;;;;;;11.15;2.72;;;;;;;;;;5130770;27;20420;-74
2021/04/22 11:56:54;;;;;;;14.25;2.90;;;;;;;;;;5149142;27;20419;-74
2021/04/22 11:59:21;;;;;;;14.20;2.67;;;;;;;;;;5148656;27;20918;-73
2021/04/22 12:01:56;;;;;;;13.00;2.78;;;;;;;;;;5150541;27;20487;-73
2021/04/22 12:04:23;;;;;;;10.20;2.70;;;;;;;;;;5148141;27;20539;-73
2021/04/22 12:06:51;;;;;;;10.13;2.73;;;;;;;;;;5149855;27;20409;-74
2021/04/22 12:09:30;;;;;;;12.43;2.50;;;;;;;;;;5147352;27;20416;-73
2021/04/22 12:12:09;;;;;;;10.18;2.50;;;;;;;;;;5149995;27;20467;-74
2021/04/22 12:14:36;;;;;;;11.18;2.75;;;;;;;;;;5131559;27;20548;-74
2021/04/22 12:17:02;;;;;;;10.75;2.55;;;;;;;;;;5130051;27;20420;-74
2021/04/22 12:19:30;;;;;;;9.07;2.38;;;;;;;;;;5150506;27;20409;-73
2021/04/22 12:21:58;;;;;;;11.38;2.70;;;;;;;;;;5145288;27;20456;-69
2021/04/22 12:24:25;;;;;;;11.93;2.55;;;;;;;;;;5148763;27;20475;-69
2021/04/22 12:26:51;;;;;;;12.98;2.80;;;;;;;;;;5146983;27;20429;-68
2021/04/22 12:29:20;;;;;;;11.40;2.95;;;;;;;;;;5149057;27;20533;-69
2021/04/22 12:31:58;;;;;;;11.80;2.63;;;;;;;;;;5149882;27;20428;-70
2021/04/22 12:34:26;;;;;;;9.35;2.60;;;;;;;;;;5147262;27;20407;-73
2021/04/22 12:37:07;;;;;;;10.27;2.90;;;;;;;;;;5143851;27;20452;-72
2021/04/22 12:39:33;;;;;;;9.90;2.90;;;;;;;;;;5146733;27;20459;-73
2021/04/22 12:42:12;;;;;;;7.97;2.53;;;;;;;;;;5145493;27;20404;-76
2021/04/22 12:44:39;;;;;;;12.15;2.70;;;;;;;;;;5147177;27;20456;-71
2021/04/22 12:47:06;;;;;;;10.60;2.53;;;;;;;;;;5149789;27;20419;-71
2021/04/22 12:49:33;;;;;;;12.75;2.70;;;;;;;;;;5130494;27;20416;-72
2021/04/22 12:52:00;;;;;;;10.48;2.58;;;;;;;;;;5131541;27;20420;-70
2021/04/22 12:54:26;;;;;;;12.88;3.05;;;;;;;;;;5146347;27;20460;-70
2021/04/22 12:56:53;;;;;;;11.73;2.90;;;;;;;;;;5139603;27;20409;-71
2021/04/22 12:59:19;;;;;;;11.27;2.80;;;;;;;;;;5134696;27;20420;-73
2021/04/22 13:01:46;;;;;;;11.13;2.65;;;;;;;;;;5133746;27;20443;-79
2021/04/22 13:04:14;;;;;;;11.52;2.90;;;;;;;;;;5110597;27;20437;-81
2021/04/22 13:06:42;;;;;;;12.90;2.70;;;;;;;;;;5110704;27;20467;-73
2021/04/22 13:09:09;;;;;;;13.10;3.00;;;;;;;;;;5144522;27;20499;-73
2021/04/22 13:11:36;;;;;;;11.23;2.90;;;;;;;;;;5133913;27;20869;-73
2021/04/22 13:14:07;;;;;;;10.23;2.97;;;;;;;;;;5134447;27;20890;-74
2021/04/22 13:16:45;;;;;;;13.52;2.90;;;;;;;;;;5134583;27;20501;-73
2021/04/22 13:19:18;;;;;;;17.50;2.97;;;;;;;;;;5134201;27;20446;-74
2021/04/22 13:21:48;;;;;;;11.73;2.80;;;;;;;;;;5117266;27;20876;-74
2021/04/22 13:24:15;;;;;;;10.52;2.47;;;;;;;;;;5134055;27;20457;-73
2021/04/22 13:26:51;;;;;;;9.52;2.42;;;;;;;;;;5134364;27;20881;-73
2021/04/22 13:29:19;;;;;;;12.48;2.35;;;;;;;;;;5133682;27;20452;-73
2021/04/22 13:31:46;;;;;;;8.27;2.30;;;;;;;;;;5134446;27;20514;-73
2021/04/22 13:34:14;;;;;;;9.15;2.13;;;;;;;;;;5133575;27;20440;-74
2021/04/22 13:36:50;;;;;;;12.38;2.72;;;;;;;;;;5134417;27;20509;-73
2021/04/22 13:39:24;;;;;;;13.15;2.70;;;;;;;;;;5115402;27;20548;-73
2021/04/22 13:41:51;;;;;;;12.20;2.35;;;;;;;;;;5134353;27;20403;-74
2021/04/22 13:44:17;;;;;;;11.80;2.85;;;;;;;;;;5098404;27;20434;-73
2021/04/22 13:47:13;;;;;;;14.20;2.90;;;;;;;;;;5134157;27;20406;-73
2021/04/22 13:49:44;;;;;;;13.38;3.10;;;;;;;;;;5116632;27;20788;-73
2021/04/22 13:52:11;;;;;;;11.57;2.60;;;;;;;;;;5133434;27;20414;-72
2021/04/22 13:54:38;;;;;;;13.57;2.88;;;;;;;;;;5133872;27;20413;-73
2021/04/22 13:57:12;;;;;;;11.40;3.17;;;;;;;;;;5134029;27;20885;-74
2021/04/22 13:59:38;;;;;;;9.25;2.92;;;;;;;;;;5133707;27;20467;-73
2021/04/22 14:02:05;;;;;;;8.60;2.42;;;;;;;;;;5134035;27;20406;-73
2021/04/22 14:04:31;;;;;;;12.40;2.40;;;;;;;;;;5133038;27;20438;-72
2021/04/22 14:06:58;;;;;;;11.35;3.00;;;;;;;;;;5133561;27;20492;-73
2021/04/22 14:09:26;;;;;;;8.85;2.80;;;;;;;;;;5132809;27;20413;-73
2021/04/22 14:11:52;;;;;;;11.40;2.90;;;;;;;;;;5115215;27;20434;-72
2021/04/22 14:14:21;;;;;;;11.43;2.78;;;;;;;;;;5097522;27;20406;-73
2021/04/22 14:16:47;;;;;;;11.97;3.70;;;;;;;;;;5133533;27;20415;-73
2021/04/22 14:19:14;;;;;;;11.23;3.30;;;;;;;;;;5114579;27;20845;-72
2021/04/22 14:21:40;;;;;;;15.20;3.50;;;;;;;;;;5115622;27;20414;-73
2021/04/22 14:24:07;;;;;;;14.10;3.38;;;;;;;;;;5133530;27;20402;-73
2021/04/22 14:26:34;;;;;;;16.70;3.83;;;;;;;;;;5113982;27;20444;-74
2021/04/22 14:29:00;;;;;;;10.30;3.45;;;;;;;;;;5133411;27;20435;-72
2021/04/22 14:31:27;;;;;;;11.23;3.10;;;;;;;;;;5132907;27;20422;-71
2021/04/22 14:33:53;;;;;;;11.10;3.03;;;;;;;;;;5115369;27;20441;-75
2021/04/22 14:36:20;;;;;;;13.43;3.40;;;;;;;;;;5114409;27;20429;-72